createdAt,value
2023-01-04T00:00:16.908Z,91.83
2023-01-04T00:02:44.569Z,91.95
2023-01-04T00:05:12.084Z,91.98
2023-01-04T00:07:39.782Z,91.77
2023-01-04T00:10:07.653Z,92.01
2023-01-04T00:12:37.502Z,91.65
2023-01-04T00:15:05.667Z,92.34
2023-01-04T00:17:33.141Z,91.99
2023-01-04T00:20:00.644Z,91.96
2023-01-04T00:22:28.139Z,92.18
2023-01-04T00:24:55.592Z,91.94
2023-01-04T00:27:23.036Z,91.65
2023-01-04T00:29:52.038Z,91.55
2023-01-04T00:32:19.514Z,92.10
2023-01-04T00:34:47.499Z,91.75
2023-01-04T00:37:14.946Z,91.82
2023-01-04T00:39:42.627Z,91.75
2023-01-04T00:42:10.120Z,91.92
2023-01-04T00:44:37.578Z,91.87
2023-01-04T00:47:06.407Z,91.76
2023-01-04T00:49:34.078Z,91.42
2023-01-04T00:52:01.642Z,91.79
2023-01-04T00:54:29.286Z,91.94
2023-01-04T00:56:56.827Z,91.46
2023-01-04T00:59:24.362Z,91.66
2023-01-04T01:01:52.530Z,91.56
2023-01-04T01:04:23.414Z,90.95
2023-01-04T01:06:51.735Z,91.13
2023-01-04T01:09:19.246Z,91.16
2023-01-04T01:11:46.748Z,90.46
2023-01-04T01:14:17.505Z,90.23
2023-01-04T01:16:55.349Z,91.01
2023-01-04T01:19:25.241Z,90.03
2023-01-04T01:21:52.781Z,89.89
2023-01-04T01:24:20.838Z,89.67
2023-01-04T01:26:48.426Z,89.75
2023-01-04T01:29:15.886Z,89.18
2023-01-04T01:31:43.404Z,89.57
2023-01-04T01:34:10.990Z,88.99
2023-01-04T01:36:39.824Z,89.30
2023-01-04T01:39:07.594Z,89.10
2023-01-04T01:41:36.613Z,88.85
2023-01-04T01:44:06.783Z,88.60
2023-01-04T01:46:37.105Z,88.63
2023-01-04T01:49:06.465Z,88.50
2023-01-04T01:51:34.838Z,88.77
2023-01-04T01:54:05.822Z,87.92
2023-01-04T01:56:34.944Z,88.35
2023-01-04T01:59:04.526Z,88.56
2023-01-04T02:01:32.104Z,88.64
2023-01-04T02:03:59.806Z,88.73
2023-01-04T02:06:30.461Z,88.38
2023-01-04T02:08:57.972Z,87.72
2023-01-04T02:11:27.643Z,87.56
2023-01-04T02:14:13.139Z,87.81
2023-01-04T02:16:56.135Z,87.93
2023-01-04T02:19:38.046Z,88.61
2023-01-04T02:22:28.072Z,88.54
2023-01-04T02:25:19.828Z,90.10
2023-01-04T02:27:54.119Z,91.24
2023-01-04T02:30:39.553Z,91.80
2023-01-04T02:33:17.227Z,92.83
2023-01-04T02:35:53.906Z,93.06
2023-01-04T02:38:25.315Z,93.93
2023-01-04T02:40:59.069Z,94.70
2023-01-04T02:43:47.691Z,95.74
2023-01-04T02:46:17.183Z,96.19
2023-01-04T02:49:03.622Z,97.15
2023-01-04T02:51:33.030Z,98.08
2023-01-04T02:54:02.140Z,98.91
2023-01-04T02:56:52.703Z,100.00
2023-01-04T02:59:32.640Z,100.00
2023-01-04T03:02:25.674Z,100.00
2023-01-04T03:05:21.139Z,100.00
2023-01-04T03:07:52.658Z,100.00
2023-01-04T03:10:23.612Z,100.00
2023-01-04T03:12:54.172Z,100.00
2023-01-04T03:15:24.084Z,100.00
2023-01-04T03:17:54.061Z,100.00
2023-01-04T03:20:24.515Z,100.00
2023-01-04T03:23:12.899Z,100.00
2023-01-04T03:26:01.042Z,100.00
2023-01-04T03:28:48.322Z,100.00
2023-01-04T03:31:37.616Z,100.00
2023-01-04T03:34:23.678Z,100.00
2023-01-04T03:36:59.709Z,100.00
2023-01-04T03:39:53.241Z,100.00
2023-01-04T03:42:41.468Z,100.00
2023-01-04T03:45:33.194Z,100.00
2023-01-04T03:48:22.680Z,100.00
2023-01-04T03:50:52.827Z,100.00
2023-01-04T03:53:21.879Z,100.00
2023-01-04T03:55:50.060Z,100.00
2023-01-04T03:58:17.648Z,100.00
2023-01-04T04:00:46.563Z,100.00
2023-01-04T04:03:14.436Z,100.00
2023-01-04T04:06:01.550Z,100.00
2023-01-04T04:08:31.038Z,100.00
2023-01-04T04:11:21.863Z,100.00
2023-01-04T04:13:50.764Z,100.00
2023-01-04T04:16:18.685Z,100.00
2023-01-04T04:18:47.941Z,100.00
2023-01-04T04:21:15.737Z,100.00
2023-01-04T04:23:47.686Z,100.00
2023-01-04T04:29:08.719Z,100.00
2023-01-04T04:31:39.087Z,100.00
2023-01-04T04:34:07.307Z,100.00
2023-01-04T04:36:40.528Z,100.00
2023-01-04T04:39:09.959Z,100.00
2023-01-04T04:41:39.719Z,100.00
2023-01-04T04:44:08.644Z,100.00
2023-01-04T04:46:36.879Z,100.00
2023-01-04T04:49:05.178Z,100.00
2023-01-04T04:51:33.335Z,100.00
2023-01-04T04:54:01.553Z,100.00
2023-01-04T04:56:30.838Z,100.00
2023-01-04T04:58:58.954Z,100.00
2023-01-04T05:04:29.788Z,100.00
2023-01-04T05:07:00.246Z,100.00
2023-01-04T05:09:28.299Z,100.00
2023-01-04T05:12:15.216Z,100.00
2023-01-04T05:20:45.130Z,100.00
2023-01-04T05:23:14.789Z,100.00
2023-01-04T05:25:43.019Z,100.00
2023-01-04T05:28:12.795Z,100.00
2023-01-04T05:30:52.335Z,100.00
2023-01-04T05:33:22.257Z,100.00
2023-01-04T05:35:50.962Z,100.00
2023-01-04T05:38:19.744Z,100.00
2023-01-04T05:40:48.375Z,100.00
2023-01-04T05:43:17.978Z,100.00
2023-01-04T05:45:49.264Z,100.00
2023-01-04T05:48:17.395Z,100.00
2023-01-04T05:50:45.792Z,100.00
2023-01-04T05:53:14.515Z,100.00
2023-01-04T05:55:42.173Z,100.00
2023-01-04T05:58:09.971Z,100.00
2023-01-04T06:00:38.901Z,100.00
2023-01-04T06:03:06.757Z,100.00
2023-01-04T06:05:34.536Z,100.00
2023-01-04T06:08:02.157Z,100.00
2023-01-04T06:10:29.758Z,100.00
2023-01-04T06:12:57.460Z,100.00
2023-01-04T06:15:25.191Z,100.00
2023-01-04T06:17:54.121Z,100.00
2023-01-04T06:20:21.655Z,100.00
2023-01-04T06:22:49.256Z,100.00
2023-01-04T06:25:17.211Z,100.00
2023-01-04T06:27:44.904Z,100.00
2023-01-04T06:30:13.129Z,100.00
2023-01-04T06:32:41.013Z,100.00
2023-01-04T06:35:10.632Z,100.00
2023-01-04T06:37:38.676Z,100.00
2023-01-04T06:40:11.124Z,100.00
2023-01-04T06:42:47.873Z,100.00
2023-01-04T06:45:16.647Z,100.00
2023-01-04T06:47:44.260Z,100.00
2023-01-04T06:50:13.225Z,100.00
2023-01-04T06:52:40.908Z,100.00
2023-01-04T06:55:10.160Z,100.00
2023-01-04T06:57:37.912Z,100.00
2023-01-04T07:00:06.940Z,100.00
2023-01-04T07:02:35.069Z,100.00
2023-01-04T07:05:02.981Z,100.00
2023-01-04T07:07:33.245Z,100.00
2023-01-04T07:10:05.471Z,100.00
2023-01-04T07:12:37.272Z,100.00
2023-01-04T07:15:38.656Z,100.00
2023-01-04T07:17:53.753Z,100.00
2023-01-04T07:20:21.469Z,100.00
2023-01-04T07:22:50.392Z,100.00
2023-01-04T07:25:18.217Z,100.00
2023-01-04T07:27:45.801Z,100.00
2023-01-04T07:30:14.606Z,100.00
2023-01-04T07:32:42.135Z,100.00
2023-01-04T07:41:29.405Z,100.00
2023-01-04T07:47:31.657Z,100.00
2023-01-04T07:50:00.196Z,100.00
2023-01-04T07:52:28.066Z,100.00
2023-01-04T07:54:55.649Z,100.00
2023-01-04T07:57:24.827Z,100.00
2023-01-04T07:59:54.615Z,100.00
2023-01-04T08:02:22.276Z,100.00
2023-01-04T08:04:50.140Z,100.00
2023-01-04T08:07:17.792Z,100.00
2023-01-04T08:09:45.584Z,100.00
2023-01-04T08:12:13.623Z,100.00
2023-01-04T08:14:42.860Z,100.00
2023-01-04T08:17:21.119Z,100.00
2023-01-04T08:19:48.898Z,100.00
2023-01-04T08:22:16.664Z,100.00
2023-01-04T08:24:44.234Z,100.00
2023-01-04T08:27:11.963Z,100.00
2023-01-04T08:29:39.508Z,100.00
2023-01-04T08:32:08.499Z,100.00
2023-01-04T08:34:36.043Z,100.00
2023-01-04T08:37:03.502Z,100.00
2023-01-04T08:39:35.245Z,100.00
2023-01-04T08:42:14.496Z,100.00
2023-01-04T08:44:48.149Z,100.00
2023-01-04T08:47:16.983Z,100.00
2023-01-04T08:49:44.430Z,100.00
2023-01-04T08:52:13.774Z,100.00
2023-01-04T08:54:41.420Z,100.00
2023-01-04T08:57:09.284Z,100.00
2023-01-04T08:59:37.072Z,100.00
2023-01-04T09:02:06.412Z,100.00
2023-01-04T09:04:38.783Z,100.00
2023-01-04T09:07:06.951Z,100.00
2023-01-04T09:09:34.747Z,100.00
2023-01-04T09:12:02.884Z,100.00
2023-01-04T09:14:31.111Z,100.00
2023-01-04T09:16:59.899Z,100.00
2023-01-04T09:19:27.880Z,100.00
2023-01-04T09:21:59.498Z,100.00
2023-01-04T09:24:27.720Z,100.00
2023-01-04T09:26:55.816Z,100.00
2023-01-04T09:29:24.811Z,100.00
2023-01-04T09:34:51.738Z,100.00
2023-01-04T09:37:21.098Z,100.00
2023-01-04T09:39:48.799Z,100.00
2023-01-04T09:42:19.194Z,100.00
2023-01-04T09:45:23.236Z,100.00
2023-01-04T09:47:39.819Z,100.00
2023-01-04T09:50:12.440Z,100.00
2023-01-04T09:52:47.589Z,100.00
2023-01-04T09:55:36.888Z,100.00
2023-01-04T09:58:12.770Z,100.00
2023-01-04T10:00:46.154Z,100.00
2023-01-04T10:03:16.573Z,100.00
2023-01-04T10:05:44.384Z,100.00
2023-01-04T10:08:16.924Z,100.00
2023-01-04T10:10:49.737Z,100.00
2023-01-04T10:13:29.259Z,100.00
2023-01-04T10:16:00.735Z,100.00
2023-01-04T10:19:36.578Z,100.00
2023-01-04T10:21:34.091Z,100.00
2023-01-04T10:24:20.413Z,100.00
2023-01-04T10:26:49.620Z,100.00
2023-01-04T10:29:38.393Z,100.00
2023-01-04T10:32:10.739Z,100.00
2023-01-04T10:34:40.198Z,100.00
2023-01-04T10:37:15.034Z,100.00
2023-01-04T10:39:45.047Z,100.00
2023-01-04T10:42:18.786Z,100.00
2023-01-04T10:44:54.740Z,100.00
2023-01-04T10:47:26.762Z,100.00
2023-01-04T10:49:56.863Z,100.00
2023-01-04T10:52:29.217Z,100.00
2023-01-04T10:55:01.839Z,100.00
2023-01-04T10:57:35.199Z,100.00
2023-01-04T11:00:05.765Z,100.00
2023-01-04T11:02:38.542Z,100.00
2023-01-04T11:05:13.334Z,100.00
2023-01-04T11:07:43.307Z,100.00
2023-01-04T11:10:15.010Z,100.00
2023-01-04T11:15:42.740Z,100.00
2023-01-04T11:18:11.720Z,100.00
2023-01-04T11:20:39.730Z,100.00
2023-01-04T11:23:08.845Z,100.00
2023-01-04T11:25:40.676Z,100.00
2023-01-04T11:28:15.828Z,100.00
2023-01-04T11:30:49.884Z,100.00
2023-01-04T11:33:19.786Z,100.00
2023-01-04T11:35:49.200Z,100.00
2023-01-04T11:38:19.014Z,100.00
2023-01-04T11:40:59.171Z,100.00
2023-01-04T11:43:27.364Z,100.00
2023-01-04T11:45:57.589Z,100.00
2023-01-04T11:48:33.650Z,100.00
2023-01-04T11:51:01.188Z,100.00
2023-01-04T11:53:31.491Z,100.00
2023-01-04T11:56:19.045Z,100.00
2023-01-04T11:59:03.944Z,100.00
2023-01-04T12:01:33.124Z,100.00
2023-01-04T12:04:00.808Z,100.00
2023-01-04T12:06:34.965Z,100.00
2023-01-04T12:09:02.532Z,100.00
2023-01-04T12:11:32.899Z,100.00
2023-01-04T12:14:00.562Z,100.00
2023-01-04T12:16:38.895Z,100.00
2023-01-04T12:19:06.949Z,100.00
2023-01-04T12:21:36.234Z,100.00
2023-01-04T12:24:07.234Z,100.00
2023-01-04T12:26:41.767Z,100.00
2023-01-04T12:29:35.815Z,100.00
2023-01-04T12:32:36.696Z,100.00
2023-01-04T12:35:04.753Z,100.00
2023-01-04T12:37:49.151Z,100.00
2023-01-04T12:40:50.366Z,100.00
2023-01-04T12:43:25.081Z,100.00
2023-01-04T12:46:51.735Z,100.00
2023-01-04T12:49:51.427Z,100.00
2023-01-04T12:55:59.089Z,100.00
2023-01-04T13:02:17.031Z,100.00
2023-01-04T13:04:46.334Z,100.00
2023-01-04T13:07:22.632Z,100.00
2023-01-04T13:09:53.518Z,100.00
2023-01-04T13:12:44.283Z,100.00
2023-01-04T13:15:19.743Z,100.00
2023-01-04T13:17:47.872Z,100.00
2023-01-04T13:20:19.261Z,100.00
2023-01-04T13:22:51.121Z,100.00
2023-01-04T13:25:19.894Z,100.00
2023-01-04T13:27:58.956Z,100.00
2023-01-04T13:33:27.732Z,100.00
2023-01-04T13:36:04.297Z,100.00
2023-01-04T13:38:34.371Z,100.00
2023-01-04T13:41:02.138Z,100.00
2023-01-04T13:43:46.201Z,100.00
2023-01-04T14:08:29.027Z,100.00
2023-01-04T14:10:57.569Z,100.00
2023-01-04T14:42:00.061Z,100.00
2023-01-04T14:44:30.723Z,100.00
2023-01-04T14:46:59.872Z,100.00
2023-01-04T14:49:28.307Z,100.00
2023-01-04T14:51:57.120Z,100.00
2023-01-04T14:54:26.543Z,100.00
2023-01-04T14:56:56.266Z,100.00
2023-01-04T14:59:24.723Z,100.00
2023-01-04T15:01:52.666Z,100.00
2023-01-04T15:04:20.459Z,100.00
2023-01-04T15:06:50.488Z,100.00
2023-01-04T15:09:17.979Z,100.00
2023-01-04T15:11:45.517Z,100.00
2023-01-04T15:14:14.391Z,100.00
2023-01-04T15:16:42.138Z,100.00
2023-01-04T15:19:09.803Z,100.00
2023-01-04T15:21:41.345Z,100.00
2023-01-04T15:24:09.700Z,100.00
2023-01-04T15:26:37.232Z,100.00
2023-01-04T15:29:06.571Z,100.00
2023-01-04T15:31:39.860Z,100.00
2023-01-04T15:34:08.978Z,100.00
2023-01-04T15:36:38.471Z,100.00
2023-01-04T15:39:06.236Z,100.00
2023-01-04T15:41:51.982Z,100.00
2023-01-04T15:44:19.436Z,100.00
2023-01-04T15:46:48.283Z,100.00
2023-01-04T15:49:17.851Z,100.00
2023-01-04T15:51:45.622Z,100.00
2023-01-04T15:54:13.124Z,100.00
2023-01-04T15:56:40.670Z,100.00
2023-01-04T15:59:08.165Z,100.00
2023-01-04T16:01:35.824Z,100.00
2023-01-04T16:04:06.526Z,100.00
2023-01-04T16:06:34.031Z,100.00
2023-01-04T16:09:01.898Z,100.00
2023-01-04T16:11:29.453Z,100.00
2023-01-04T16:13:57.111Z,100.00
2023-01-04T16:16:27.315Z,100.00
2023-01-04T16:18:56.175Z,100.00
2023-01-04T16:21:26.390Z,100.00
2023-01-04T16:24:01.723Z,100.00
2023-01-04T16:26:32.961Z,100.00
2023-01-04T16:29:00.859Z,100.00
2023-01-04T16:31:33.438Z,100.00
2023-01-04T16:34:00.931Z,100.00
2023-01-04T16:36:29.796Z,100.00
2023-01-04T16:38:57.511Z,100.00
2023-01-04T16:41:25.252Z,100.00
2023-01-04T16:43:55.031Z,100.00
2023-01-04T16:46:25.064Z,100.00
2023-01-04T16:48:54.094Z,100.00
2023-01-04T16:51:22.098Z,100.00
2023-01-04T16:53:51.425Z,100.00
2023-01-04T16:56:20.934Z,100.00
2023-01-04T16:58:48.805Z,100.00
2023-01-04T17:01:18.645Z,100.00
2023-01-04T17:03:47.566Z,100.00
2023-01-04T17:06:17.798Z,100.00
2023-01-04T17:08:46.078Z,100.00
2023-01-04T17:12:04.819Z,100.00
2023-01-04T17:14:05.531Z,100.00
2023-01-04T17:16:35.215Z,100.00
2023-01-04T17:19:03.252Z,100.00
2023-01-04T17:21:34.175Z,100.00
2023-01-04T17:24:02.041Z,100.00
2023-01-04T17:26:32.109Z,100.00
2023-01-04T17:29:00.745Z,100.00
2023-01-04T17:31:30.088Z,100.00
2023-01-04T17:33:57.686Z,100.00
2023-01-04T17:36:25.480Z,100.00
2023-01-04T17:38:53.032Z,100.00
2023-01-04T17:41:22.176Z,100.00
2023-01-04T17:43:52.289Z,100.00
2023-01-04T17:46:24.389Z,100.00
2023-01-04T17:49:20.628Z,100.00
2023-01-04T17:51:40.521Z,100.00
2023-01-04T17:54:10.859Z,100.00
2023-01-04T17:56:38.571Z,100.00
2023-01-04T17:59:07.664Z,100.00
2023-01-04T18:01:35.848Z,100.00
2023-01-04T18:04:04.132Z,100.00
2023-01-04T18:06:33.609Z,100.00
2023-01-04T18:09:01.861Z,100.00
2023-01-04T18:11:29.607Z,100.00
2023-01-04T18:13:57.441Z,99.94
2023-01-04T18:16:27.959Z,100.00
2023-01-04T18:18:56.314Z,99.66
2023-01-04T18:21:28.433Z,99.29
2023-01-04T18:27:19.420Z,98.81
2023-01-04T18:29:32.627Z,98.98
2023-01-04T18:32:01.542Z,100.00
2023-01-04T18:34:29.062Z,100.00
2023-01-04T18:36:56.593Z,100.00
2023-01-04T18:39:24.087Z,100.00
2023-01-04T18:41:51.637Z,100.00
2023-01-04T18:44:35.473Z,100.00
2023-01-04T18:47:04.844Z,100.00
2023-01-04T18:49:32.354Z,100.00
2023-01-04T18:51:59.869Z,100.00
2023-01-04T18:54:27.350Z,100.00
2023-01-04T18:57:00.794Z,100.00
2023-01-04T18:59:29.135Z,100.00
2023-01-04T19:02:00.728Z,100.00
2023-01-04T19:04:31.514Z,100.00
2023-01-04T19:06:59.032Z,100.00
2023-01-04T19:09:26.588Z,100.00
2023-01-04T19:11:54.127Z,100.00
2023-01-04T19:14:21.651Z,100.00
2023-01-04T19:16:49.259Z,100.00
2023-01-04T19:19:17.103Z,100.00
2023-01-04T19:21:46.243Z,100.00
2023-01-04T19:24:13.736Z,100.00
2023-01-04T19:26:41.393Z,99.28
2023-01-04T19:29:09.044Z,99.18
2023-01-04T19:31:37.049Z,98.17
2023-01-04T19:34:04.815Z,97.08
2023-01-04T19:36:32.445Z,96.92
2023-01-04T19:39:03.973Z,96.45
2023-01-04T19:41:35.015Z,96.53
2023-01-04T19:44:03.559Z,96.03
2023-01-04T19:46:31.659Z,95.81
2023-01-04T19:48:59.753Z,95.58
2023-01-04T19:51:28.377Z,95.47
2023-01-04T19:53:56.170Z,95.49
2023-01-04T19:56:25.003Z,95.46
2023-01-04T19:58:52.545Z,95.69
2023-01-04T20:01:22.277Z,96.96
2023-01-04T20:03:50.420Z,97.14
2023-01-04T20:06:18.511Z,97.32
2023-01-04T20:08:46.046Z,96.70
2023-01-04T20:11:13.736Z,96.50
2023-01-04T20:13:42.586Z,96.35
2023-01-04T20:16:10.257Z,95.74
2023-01-04T20:18:38.782Z,95.53
2023-01-04T20:21:09.419Z,95.43
2023-01-04T20:23:37.661Z,94.69
2023-01-04T20:26:11.452Z,93.91
2023-01-04T20:28:41.676Z,94.72
2023-01-04T20:31:12.564Z,95.07
2023-01-04T20:33:40.187Z,95.55
2023-01-04T20:36:09.262Z,96.62
2023-01-04T20:38:40.708Z,98.13
2023-01-04T20:41:09.042Z,98.22
2023-01-04T20:43:37.104Z,99.23
2023-01-04T20:46:06.100Z,100.00
2023-01-04T20:48:34.972Z,100.00
2023-01-04T20:51:07.189Z,100.00
2023-01-04T20:53:36.149Z,100.00
2023-01-04T20:56:08.340Z,100.00
2023-01-04T20:58:36.021Z,100.00
2023-01-04T21:01:05.377Z,100.00
2023-01-04T21:03:33.220Z,100.00
2023-01-04T21:06:04.016Z,100.00
2023-01-04T21:08:31.492Z,100.00
2023-01-04T21:10:59.629Z,100.00
2023-01-04T21:13:27.655Z,100.00
2023-01-04T21:15:55.722Z,100.00
2023-01-04T21:18:23.355Z,100.00
2023-01-04T21:20:51.454Z,100.00
2023-01-04T21:23:21.794Z,100.00
2023-01-04T21:25:50.474Z,100.00
2023-01-04T21:28:18.968Z,100.00
2023-01-04T21:30:46.915Z,100.00
2023-01-04T21:33:15.149Z,100.00
2023-01-04T21:35:42.862Z,100.00
2023-01-04T21:38:11.211Z,100.00
2023-01-04T21:40:41.228Z,100.00
2023-01-04T21:43:08.950Z,99.94
2023-01-04T21:45:40.196Z,99.04
2023-01-04T21:48:07.870Z,98.80
2023-01-04T21:50:35.723Z,98.42
2023-01-04T21:53:03.292Z,97.85
2023-01-04T21:55:34.523Z,98.46
2023-01-04T21:58:03.690Z,97.95
2023-01-04T22:00:31.304Z,98.39
2023-01-04T22:02:58.807Z,97.45
2023-01-04T22:05:26.323Z,97.86
2023-01-04T22:07:53.816Z,98.38
2023-01-04T22:10:22.099Z,98.62
2023-01-04T22:12:50.357Z,98.30
2023-01-04T22:15:19.259Z,99.13
2023-01-04T22:17:46.732Z,98.86
2023-01-04T22:20:14.358Z,98.71
2023-01-04T22:22:41.799Z,99.42
2023-01-04T22:25:10.179Z,99.42
2023-01-04T22:27:37.675Z,99.07
2023-01-04T22:30:06.580Z,100.00
2023-01-04T22:32:35.371Z,100.00
2023-01-04T22:35:02.903Z,100.00
2023-01-04T22:37:32.662Z,100.00
2023-01-04T22:40:00.611Z,100.00
2023-01-04T22:42:28.575Z,100.00
2023-01-04T22:44:56.099Z,100.00
2023-01-04T22:47:23.638Z,100.00
2023-01-04T22:49:52.480Z,100.00
2023-01-04T22:52:19.968Z,100.00
2023-01-04T22:54:48.496Z,100.00
2023-01-04T22:57:16.092Z,100.00
2023-01-04T22:59:43.573Z,100.00
2023-01-04T23:02:11.047Z,100.00
2023-01-04T23:04:40.014Z,100.00
2023-01-04T23:07:08.973Z,100.00
2023-01-04T23:09:40.646Z,100.00
2023-01-04T23:12:09.173Z,100.00
2023-01-04T23:14:37.582Z,100.00
2023-01-04T23:17:06.411Z,100.00
2023-01-04T23:19:34.552Z,100.00
2023-01-04T23:22:04.248Z,100.00
2023-01-04T23:24:34.687Z,100.00
2023-01-04T23:27:02.500Z,100.00
2023-01-04T23:29:30.050Z,100.00
2023-01-04T23:31:59.361Z,100.00
2023-01-04T23:34:27.190Z,100.00
2023-01-04T23:36:55.493Z,100.00
2023-01-04T23:39:24.507Z,100.00
2023-01-04T23:41:56.195Z,100.00
2023-01-04T23:44:25.352Z,100.00
2023-01-04T23:46:55.333Z,100.00
2023-01-04T23:49:24.545Z,100.00
2023-01-04T23:51:52.651Z,100.00
2023-01-04T23:54:23.539Z,100.00
2023-01-04T23:56:57.388Z,100.00
2023-01-04T23:59:25.586Z,100.00
